<?xml version="1.0" encoding="UTF-8" standalone="no" ?>
<gpx xmlns="http://www.topografix.com/GPX/1/1" xmlns:xsi="http://www.w3.org/2001/XMLSchema-instance" xsi:schemaLocation="http://www.topografix.com/GPX/1/1 http://www.topografix.com/GPX/1/1/gpx.xsd" version="1.1" creator="VisuGPX - https://www.visugpx.com">
  <metadata>
    <name>gr70 etape4</name>
    <desc><![CDATA[4 première étape]]></desc>
  </metadata>
  <trk>
    <name><![CDATA[gr70 etape4_2]]></name>
    <trkseg>
      <trkpt lat="44.97993" lon="3.92095">
        <ele>855.223</ele>
        <time>2016-06-07T17:55:53Z</time>
      </trkpt>
      <trkpt lat="44.97946" lon="3.92162">
        <ele>858.794</ele>
        <time>2016-06-07T17:56:13Z</time>
      </trkpt>
      <trkpt lat="44.97886" lon="3.92291">
        <ele>868.392</ele>
        <time>2016-06-07T17:56:33Z</time>
      </trkpt>
      <trkpt lat="44.97764" lon="3.92503">
        <ele>882.27</ele>
        <time>2016-06-07T17:56:53Z</time>
      </trkpt>
      <trkpt lat="44.97707" lon="3.92557">
        <ele>886.092</ele>
        <time>2016-06-07T17:57:13Z</time>
      </trkpt>
      <trkpt lat="44.97655" lon="3.92635">
        <ele>890.152</ele>
        <time>2016-06-07T17:57:33Z</time>
      </trkpt>
      <trkpt lat="44.97605" lon="3.92722">
        <ele>887.563</ele>
        <time>2016-06-07T17:57:53Z</time>
      </trkpt>
      <trkpt lat="44.97569" lon="3.92752">
        <ele>886.727</ele>
        <time>2016-06-07T17:58:13Z</time>
      </trkpt>
      <trkpt lat="44.97502" lon="3.92789">
        <ele>883.368</ele>
        <time>2016-06-07T17:58:33Z</time>
      </trkpt>
      <trkpt lat="44.97451" lon="3.92801">
        <ele>879.714</ele>
        <time>2016-06-07T17:58:53Z</time>
      </trkpt>
      <trkpt lat="44.97403" lon="3.92833">
        <ele>882.508</ele>
        <time>2016-06-07T17:59:13Z</time>
      </trkpt>
      <trkpt lat="44.97348" lon="3.92913">
        <ele>878.595</ele>
        <time>2016-06-07T17:59:33Z</time>
      </trkpt>
      <trkpt lat="44.97348" lon="3.92913">
        <ele>878.566</ele>
        <time>2016-06-07T17:59:53Z</time>
      </trkpt>
      <trkpt lat="44.97322" lon="3.92977">
        <ele>878.527</ele>
        <time>2016-06-07T18:00:13Z</time>
      </trkpt>
      <trkpt lat="44.97305" lon="3.93004">
        <ele>879.825</ele>
        <time>2016-06-07T18:00:33Z</time>
      </trkpt>
      <trkpt lat="44.97145" lon="3.93431">
        <ele>885.343</ele>
        <time>2016-06-07T18:00:53Z</time>
      </trkpt>
      <trkpt lat="44.9711" lon="3.93489">
        <ele>884.635</ele>
        <time>2016-06-07T18:01:13Z</time>
      </trkpt>
      <trkpt lat="44.97069" lon="3.93547">
        <ele>884.915</ele>
        <time>2016-06-07T18:01:33Z</time>
      </trkpt>
      <trkpt lat="44.97059" lon="3.93579">
        <ele>887.026</ele>
        <time>2016-06-07T18:01:53Z</time>
      </trkpt>
      <trkpt lat="44.96964" lon="3.93753">
        <ele>887.437</ele>
        <time>2016-06-07T18:02:13Z</time>
      </trkpt>
      <trkpt lat="44.96919" lon="3.93864">
        <ele>886.449</ele>
        <time>2016-06-07T18:02:33Z</time>
      </trkpt>
      <trkpt lat="44.96885" lon="3.93925">
        <ele>885.313</ele>
        <time>2016-06-07T18:02:53Z</time>
      </trkpt>
      <trkpt lat="44.96817" lon="3.94012">
        <ele>891.108</ele>
        <time>2016-06-07T18:03:13Z</time>
      </trkpt>
      <trkpt lat="44.96722" lon="3.94102">
        <ele>889.386</ele>
        <time>2016-06-07T18:03:33Z</time>
      </trkpt>
      <trkpt lat="44.96683" lon="3.94133">
        <ele>889.227</ele>
        <time>2016-06-07T18:03:53Z</time>
      </trkpt>
      <trkpt lat="44.96614" lon="3.9422">
        <ele>888.978</ele>
        <time>2016-06-07T18:04:13Z</time>
      </trkpt>
      <trkpt lat="44.96565" lon="3.94266">
        <ele>891.266</ele>
        <time>2016-06-07T18:04:33Z</time>
      </trkpt>
      <trkpt lat="44.96493" lon="3.94369">
        <ele>890.064</ele>
        <time>2016-06-07T18:04:53Z</time>
      </trkpt>
      <trkpt lat="44.96437" lon="3.94469">
        <ele>890.046</ele>
        <time>2016-06-07T18:05:13Z</time>
      </trkpt>
      <trkpt lat="44.96398" lon="3.94545">
        <ele>889.876</ele>
        <time>2016-06-07T18:05:33Z</time>
      </trkpt>
      <trkpt lat="44.96357" lon="3.94605">
        <ele>886.417</ele>
        <time>2016-06-07T18:05:53Z</time>
      </trkpt>
      <trkpt lat="44.96246" lon="3.94747">
        <ele>890.553</ele>
        <time>2016-06-07T18:06:13Z</time>
      </trkpt>
      <trkpt lat="44.962" lon="3.94827">
        <ele>894.104</ele>
        <time>2016-06-07T18:06:33Z</time>
      </trkpt>
      <trkpt lat="44.96189" lon="3.94872">
        <ele>896.414</ele>
        <time>2016-06-07T18:06:53Z</time>
      </trkpt>
      <trkpt lat="44.96191" lon="3.94947">
        <ele>901.408</ele>
        <time>2016-06-07T18:07:13Z</time>
      </trkpt>
      <trkpt lat="44.96207" lon="3.95062">
        <ele>909.488</ele>
        <time>2016-06-07T18:07:33Z</time>
      </trkpt>
      <trkpt lat="44.96234" lon="3.95571">
        <ele>912.269</ele>
        <time>2016-06-07T18:07:53Z</time>
      </trkpt>
      <trkpt lat="44.96249" lon="3.95722">
        <ele>912.38</ele>
        <time>2016-06-07T18:08:13Z</time>
      </trkpt>
      <trkpt lat="44.96258" lon="3.95866">
        <ele>898.968</ele>
        <time>2016-06-07T18:08:33Z</time>
      </trkpt>
      <trkpt lat="44.96227" lon="3.95933">
        <ele>895.196</ele>
        <time>2016-06-07T18:08:53Z</time>
      </trkpt>
      <trkpt lat="44.96182" lon="3.96004">
        <ele>894.288</ele>
        <time>2016-06-07T18:09:13Z</time>
      </trkpt>
      <trkpt lat="44.96132" lon="3.96146">
        <ele>885.998</ele>
        <time>2016-06-07T18:09:33Z</time>
      </trkpt>
      <trkpt lat="44.96119" lon="3.96144">
        <ele>886.959</ele>
        <time>2016-06-07T18:09:53Z</time>
      </trkpt>
      <trkpt lat="44.9609" lon="3.96181">
        <ele>885.923</ele>
        <time>2016-06-07T18:10:13Z</time>
      </trkpt>
      <trkpt lat="44.9605" lon="3.96182">
        <ele>892.883</ele>
        <time>2016-06-07T18:10:33Z</time>
      </trkpt>
      <trkpt lat="44.96022" lon="3.96195">
        <ele>895.611</ele>
        <time>2016-06-07T18:10:53Z</time>
      </trkpt>
      <trkpt lat="44.96006" lon="3.96222">
        <ele>893.908</ele>
        <time>2016-06-07T18:11:13Z</time>
      </trkpt>
      <trkpt lat="44.95984" lon="3.96285">
        <ele>891.255</ele>
        <time>2016-06-07T18:11:33Z</time>
      </trkpt>
      <trkpt lat="44.9593" lon="3.96334">
        <ele>896.056</ele>
        <time>2016-06-07T18:11:53Z</time>
      </trkpt>
      <trkpt lat="44.95907" lon="3.96388">
        <ele>901.137</ele>
        <time>2016-06-07T18:12:13Z</time>
      </trkpt>
      <trkpt lat="44.95889" lon="3.96469">
        <ele>899.145</ele>
        <time>2016-06-07T18:12:33Z</time>
      </trkpt>
      <trkpt lat="44.95827" lon="3.96586">
        <ele>896.483</ele>
        <time>2016-06-07T18:12:53Z</time>
      </trkpt>
      <trkpt lat="44.95743" lon="3.96659">
        <ele>893.675</ele>
        <time>2016-06-07T18:13:13Z</time>
      </trkpt>
      <trkpt lat="44.9571" lon="3.9669">
        <ele>894.755</ele>
        <time>2016-06-07T18:13:33Z</time>
      </trkpt>
      <trkpt lat="44.95672" lon="3.96744">
        <ele>895.736</ele>
        <time>2016-06-07T18:13:53Z</time>
      </trkpt>
      <trkpt lat="44.95564" lon="3.96917">
        <ele>895.791</ele>
        <time>2016-06-07T18:14:13Z</time>
      </trkpt>
      <trkpt lat="44.95552" lon="3.96949">
        <ele>894.281</ele>
        <time>2016-06-07T18:14:33Z</time>
      </trkpt>
      <trkpt lat="44.95543" lon="3.9701">
        <ele>892.619</ele>
        <time>2016-06-07T18:14:53Z</time>
      </trkpt>
      <trkpt lat="44.95535" lon="3.97034">
        <ele>893.508</ele>
        <time>2016-06-07T18:15:13Z</time>
      </trkpt>
      <trkpt lat="44.95489" lon="3.97058">
        <ele>896.292</ele>
        <time>2019-03-25T14:41:51Z</time>
      </trkpt>
      <trkpt lat="44.95444" lon="3.97097">
        <ele>904.043</ele>
        <time>2019-03-25T14:42:11Z</time>
      </trkpt>
      <trkpt lat="44.95336" lon="3.97124">
        <ele>921.434</ele>
        <time>2019-03-25T14:42:31Z</time>
      </trkpt>
      <trkpt lat="44.9534" lon="3.97092">
        <ele>922.522</ele>
        <time>2019-03-25T14:42:51Z</time>
      </trkpt>
      <trkpt lat="44.95271" lon="3.97079">
        <ele>939.92</ele>
        <time>2019-03-25T14:43:11Z</time>
      </trkpt>
      <trkpt lat="44.95136" lon="3.97015">
        <ele>972.772</ele>
        <time>2019-03-25T14:43:31Z</time>
      </trkpt>
      <trkpt lat="44.95052" lon="3.97039">
        <ele>977.112</ele>
        <time>2019-03-25T14:43:51Z</time>
      </trkpt>
      <trkpt lat="44.94945" lon="3.97034">
        <ele>977.213</ele>
        <time>2019-03-25T14:44:11Z</time>
      </trkpt>
      <trkpt lat="44.9485" lon="3.96997">
        <ele>977.582</ele>
        <time>2019-03-25T14:44:31Z</time>
      </trkpt>
      <trkpt lat="44.94773" lon="3.97076">
        <ele>978.743</ele>
        <time>2019-03-25T14:44:51Z</time>
      </trkpt>
      <trkpt lat="44.94786" lon="3.97134">
        <ele>980.817</ele>
        <time>2019-03-25T14:45:11Z</time>
      </trkpt>
      <trkpt lat="44.94736" lon="3.97177">
        <ele>983.708</ele>
        <time>2019-03-25T14:45:31Z</time>
      </trkpt>
      <trkpt lat="44.94698" lon="3.97169">
        <ele>983.181</ele>
        <time>2019-03-25T14:45:51Z</time>
      </trkpt>
      <trkpt lat="44.94633" lon="3.97198">
        <ele>982.262</ele>
        <time>2019-03-25T14:46:11Z</time>
      </trkpt>
      <trkpt lat="44.94605" lon="3.97243">
        <ele>977.983</ele>
        <time>2019-03-25T14:46:31Z</time>
      </trkpt>
      <trkpt lat="44.94584" lon="3.97346">
        <ele>978.641</ele>
        <time>2019-03-25T14:46:51Z</time>
      </trkpt>
      <trkpt lat="44.94592" lon="3.97383">
        <ele>981.019</ele>
        <time>2019-03-25T14:47:11Z</time>
      </trkpt>
      <trkpt lat="44.94596" lon="3.97443">
        <ele>983.731</ele>
        <time>2019-03-25T14:47:31Z</time>
      </trkpt>
      <trkpt lat="44.94611" lon="3.97546">
        <ele>983.571</ele>
        <time>2019-03-25T14:47:51Z</time>
      </trkpt>
      <trkpt lat="44.94601" lon="3.97594">
        <ele>977.292</ele>
        <time>2019-03-25T14:48:11Z</time>
      </trkpt>
      <trkpt lat="44.9462" lon="3.97628">
        <ele>981.446</ele>
        <time>2019-03-25T14:48:31Z</time>
      </trkpt>
      <trkpt lat="44.94637" lon="3.97797">
        <ele>987.988</ele>
        <time>2019-03-25T14:48:51Z</time>
      </trkpt>
      <trkpt lat="44.94614" lon="3.97945">
        <ele>985.916</ele>
        <time>2019-03-25T14:49:11Z</time>
      </trkpt>
      <trkpt lat="44.94614" lon="3.98138">
        <ele>987.608</ele>
        <time>2019-03-25T14:49:31Z</time>
      </trkpt>
      <trkpt lat="44.94629" lon="3.98244">
        <ele>981.437</ele>
        <time>2019-03-25T14:49:51Z</time>
      </trkpt>
      <trkpt lat="44.94665" lon="3.98284">
        <ele>977.158</ele>
        <time>2019-03-25T14:50:11Z</time>
      </trkpt>
      <trkpt lat="44.94667" lon="3.98424">
        <ele>955.379</ele>
        <time>2019-03-25T14:50:31Z</time>
      </trkpt>
      <trkpt lat="44.94678" lon="3.98484">
        <ele>947.397</ele>
        <time>2019-03-25T14:50:51Z</time>
      </trkpt>
      <trkpt lat="44.94663" lon="3.98585">
        <ele>934.565</ele>
        <time>2019-03-25T14:51:11Z</time>
      </trkpt>
      <trkpt lat="44.94691" lon="3.98759">
        <ele>932.087</ele>
        <time>2019-03-25T14:51:31Z</time>
      </trkpt>
      <trkpt lat="44.94659" lon="3.9892">
        <ele>930.937</ele>
        <time>2019-03-25T14:51:51Z</time>
      </trkpt>
      <trkpt lat="44.94646" lon="3.98939">
        <ele>931.298</ele>
        <time>2019-03-25T14:52:11Z</time>
      </trkpt>
      <trkpt lat="44.94644" lon="3.98946">
        <ele>931.653</ele>
        <time>2016-06-07T18:23:53Z</time>
      </trkpt>
      <trkpt lat="44.94487" lon="3.99055">
        <ele>936.904</ele>
        <time>2016-06-07T18:24:13Z</time>
      </trkpt>
      <trkpt lat="44.94403" lon="3.99102">
        <ele>936.014</ele>
        <time>2016-06-07T18:24:33Z</time>
      </trkpt>
      <trkpt lat="44.94352" lon="3.99158">
        <ele>933.508</ele>
        <time>2016-06-07T18:24:53Z</time>
      </trkpt>
      <trkpt lat="44.94302" lon="3.99223">
        <ele>932.878</ele>
        <time>2016-06-07T18:25:13Z</time>
      </trkpt>
      <trkpt lat="44.94146" lon="3.99321">
        <ele>931.759</ele>
        <time>2016-06-07T18:25:33Z</time>
      </trkpt>
      <trkpt lat="44.94098" lon="3.99326">
        <ele>933.38</ele>
        <time>2016-06-07T18:25:53Z</time>
      </trkpt>
      <trkpt lat="44.94068" lon="3.9935">
        <ele>933.698</ele>
        <time>2016-06-07T18:26:13Z</time>
      </trkpt>
      <trkpt lat="44.94009" lon="3.994">
        <ele>933.096</ele>
        <time>2016-06-07T18:26:33Z</time>
      </trkpt>
      <trkpt lat="44.93969" lon="3.99405">
        <ele>931.248</ele>
        <time>2016-06-07T18:26:53Z</time>
      </trkpt>
      <trkpt lat="44.93942" lon="3.99422">
        <ele>932.628</ele>
        <time>2016-06-07T18:27:13Z</time>
      </trkpt>
      <trkpt lat="44.93924" lon="3.99446">
        <ele>934.799</ele>
        <time>2016-06-07T18:27:33Z</time>
      </trkpt>
      <trkpt lat="44.93899" lon="3.99485">
        <ele>938.091</ele>
        <time>2016-06-07T18:27:53Z</time>
      </trkpt>
      <trkpt lat="44.93887" lon="3.99527">
        <ele>941.981</ele>
        <time>2016-06-07T18:28:13Z</time>
      </trkpt>
      <trkpt lat="44.93833" lon="3.99548">
        <ele>942.919</ele>
        <time>2016-06-07T18:28:33Z</time>
      </trkpt>
      <trkpt lat="44.93768" lon="3.99553">
        <ele>945.408</ele>
        <time>2016-06-07T18:28:53Z</time>
      </trkpt>
      <trkpt lat="44.93738" lon="3.99569">
        <ele>945.342</ele>
        <time>2016-06-07T18:29:13Z</time>
      </trkpt>
      <trkpt lat="44.93681" lon="3.99578">
        <ele>941.143</ele>
        <time>2016-06-07T18:29:33Z</time>
      </trkpt>
      <trkpt lat="44.93631" lon="3.99609">
        <ele>940.374</ele>
        <time>2016-06-07T18:29:53Z</time>
      </trkpt>
      <trkpt lat="44.93568" lon="3.99633">
        <ele>937.552</ele>
        <time>2016-06-07T18:30:13Z</time>
      </trkpt>
      <trkpt lat="44.9354" lon="3.99639">
        <ele>936.54</ele>
        <time>2016-06-07T18:30:33Z</time>
      </trkpt>
      <trkpt lat="44.9353" lon="3.99614">
        <ele>933.432</ele>
        <time>2016-06-07T18:30:53Z</time>
      </trkpt>
      <trkpt lat="44.93525" lon="3.99573">
        <ele>928.052</ele>
        <time>2016-06-07T18:31:13Z</time>
      </trkpt>
      <trkpt lat="44.9353" lon="3.99545">
        <ele>924.553</ele>
        <time>2016-06-07T18:31:33Z</time>
      </trkpt>
      <trkpt lat="44.93566" lon="3.99476">
        <ele>917.491</ele>
        <time>2016-06-07T18:31:53Z</time>
      </trkpt>
      <trkpt lat="44.93598" lon="3.9938">
        <ele>898.681</ele>
        <time>2016-06-07T18:32:13Z</time>
      </trkpt>
      <trkpt lat="44.93607" lon="3.99338">
        <ele>892.619</ele>
        <time>2016-06-07T18:32:33Z</time>
      </trkpt>
      <trkpt lat="44.93621" lon="3.99304">
        <ele>888.808</ele>
        <time>2016-06-07T18:32:53Z</time>
      </trkpt>
      <trkpt lat="44.93633" lon="3.99246">
        <ele>884.952</ele>
        <time>2016-06-07T18:33:13Z</time>
      </trkpt>
      <trkpt lat="44.93638" lon="3.99178">
        <ele>880.823</ele>
        <time>2016-06-07T18:33:33Z</time>
      </trkpt>
      <trkpt lat="44.93636" lon="3.99115">
        <ele>877.274</ele>
        <time>2016-06-07T18:33:53Z</time>
      </trkpt>
      <trkpt lat="44.93648" lon="3.99015">
        <ele>867.692</ele>
        <time>2016-06-07T18:34:13Z</time>
      </trkpt>
      <trkpt lat="44.93662" lon="3.98951">
        <ele>860.75</ele>
        <time>2016-06-07T18:34:33Z</time>
      </trkpt>
      <trkpt lat="44.93685" lon="3.98903">
        <ele>856.632</ele>
        <time>2016-06-07T18:34:53Z</time>
      </trkpt>
      <trkpt lat="44.93689" lon="3.9881">
        <ele>849.642</ele>
        <time>2016-06-07T18:35:13Z</time>
      </trkpt>
      <trkpt lat="44.93718" lon="3.98742">
        <ele>842.923</ele>
        <time>2016-06-07T18:35:33Z</time>
      </trkpt>
      <trkpt lat="44.9372" lon="3.98707">
        <ele>839.763</ele>
        <time>2016-06-07T18:35:53Z</time>
      </trkpt>
      <trkpt lat="44.93659" lon="3.98448">
        <ele>819.244</ele>
        <time>2016-06-07T18:36:13Z</time>
      </trkpt>
      <trkpt lat="44.93625" lon="3.9841">
        <ele>816.918</ele>
        <time>2016-06-07T18:36:33Z</time>
      </trkpt>
      <trkpt lat="44.93625" lon="3.9841">
        <ele>816.908</ele>
        <time>2016-06-07T18:36:53Z</time>
      </trkpt>
      <trkpt lat="44.93567" lon="3.98369">
        <ele>817.299</ele>
        <time>2016-06-07T18:37:13Z</time>
      </trkpt>
      <trkpt lat="44.93504" lon="3.98357">
        <ele>817.81</ele>
        <time>2016-06-07T18:37:33Z</time>
      </trkpt>
      <trkpt lat="44.93469" lon="3.98321">
        <ele>824.671</ele>
        <time>2016-06-07T18:37:53Z</time>
      </trkpt>
      <trkpt lat="44.93446" lon="3.98322">
        <ele>829.749</ele>
        <time>2016-06-07T18:38:13Z</time>
      </trkpt>
      <trkpt lat="44.93405" lon="3.98299">
        <ele>834.247</ele>
        <time>2016-06-07T18:38:33Z</time>
      </trkpt>
      <trkpt lat="44.93427" lon="3.98236">
        <ele>837.939</ele>
        <time>2016-06-07T18:38:53Z</time>
      </trkpt>
      <trkpt lat="44.9342" lon="3.98194">
        <ele>843.619</ele>
        <time>2016-06-07T18:39:13Z</time>
      </trkpt>
      <trkpt lat="44.93422" lon="3.98167">
        <ele>846.08</ele>
        <time>2016-06-07T18:39:33Z</time>
      </trkpt>
      <trkpt lat="44.93414" lon="3.98141">
        <ele>849.381</ele>
        <time>2016-06-07T18:39:53Z</time>
      </trkpt>
      <trkpt lat="44.93391" lon="3.98061">
        <ele>858.161</ele>
        <time>2019-03-25T15:08:51Z</time>
      </trkpt>
      <trkpt lat="44.93345" lon="3.98035">
        <ele>866.917</ele>
        <time>2019-03-25T15:09:11Z</time>
      </trkpt>
      <trkpt lat="44.93333" lon="3.97968">
        <ele>870.108</ele>
        <time>2019-03-25T15:09:31Z</time>
      </trkpt>
      <trkpt lat="44.93346" lon="3.97921">
        <ele>870.181</ele>
        <time>2019-03-25T15:09:51Z</time>
      </trkpt>
      <trkpt lat="44.9335" lon="3.97856">
        <ele>871.572</ele>
        <time>2016-06-07T18:41:33Z</time>
      </trkpt>
      <trkpt lat="44.93373" lon="3.97813">
        <ele>867.133</ele>
        <time>2016-06-07T18:41:53Z</time>
      </trkpt>
      <trkpt lat="44.93374" lon="3.97788">
        <ele>866.061</ele>
        <time>2016-06-07T18:42:13Z</time>
      </trkpt>
      <trkpt lat="44.93352" lon="3.97718">
        <ele>867.479</ele>
        <time>2016-06-07T18:42:33Z</time>
      </trkpt>
      <trkpt lat="44.93316" lon="3.9766">
        <ele>877.231</ele>
        <time>2016-06-07T18:42:53Z</time>
      </trkpt>
      <trkpt lat="44.93317" lon="3.97622">
        <ele>883.421</ele>
        <time>2016-06-07T18:43:13Z</time>
      </trkpt>
      <trkpt lat="44.9336" lon="3.97504">
        <ele>889.812</ele>
        <time>2016-06-07T18:43:33Z</time>
      </trkpt>
      <trkpt lat="44.93371" lon="3.9745">
        <ele>893.229</ele>
        <time>2016-06-07T18:43:53Z</time>
      </trkpt>
      <trkpt lat="44.93373" lon="3.9741">
        <ele>893</ele>
        <time>2016-06-07T18:44:13Z</time>
      </trkpt>
      <trkpt lat="44.93358" lon="3.97347">
        <ele>899.92</ele>
        <time>2016-06-07T18:44:33Z</time>
      </trkpt>
      <trkpt lat="44.93351" lon="3.97288">
        <ele>909.608</ele>
        <time>2016-06-07T18:44:53Z</time>
      </trkpt>
      <trkpt lat="44.93354" lon="3.9722">
        <ele>918.195</ele>
        <time>2016-06-07T18:45:13Z</time>
      </trkpt>
      <trkpt lat="44.93359" lon="3.97131">
        <ele>920.056</ele>
        <time>2016-06-07T18:45:33Z</time>
      </trkpt>
      <trkpt lat="44.93348" lon="3.97112">
        <ele>921.487</ele>
        <time>2016-06-07T18:45:53Z</time>
      </trkpt>
      <trkpt lat="44.93314" lon="3.97106">
        <ele>928.795</ele>
        <time>2016-06-07T18:46:13Z</time>
      </trkpt>
      <trkpt lat="44.93287" lon="3.97096">
        <ele>933.933</ele>
        <time>2016-06-07T18:46:33Z</time>
      </trkpt>
      <trkpt lat="44.93264" lon="3.97074">
        <ele>936.225</ele>
        <time>2016-06-07T18:46:53Z</time>
      </trkpt>
      <trkpt lat="44.93251" lon="3.97012">
        <ele>937.515</ele>
        <time>2016-06-07T18:47:13Z</time>
      </trkpt>
      <trkpt lat="44.93264" lon="3.96885">
        <ele>940.766</ele>
        <time>2016-06-07T18:47:33Z</time>
      </trkpt>
      <trkpt lat="44.93258" lon="3.9685">
        <ele>943.224</ele>
        <time>2016-06-07T18:47:53Z</time>
      </trkpt>
      <trkpt lat="44.93236" lon="3.96799">
        <ele>946.004</ele>
        <time>2016-06-07T18:48:13Z</time>
      </trkpt>
      <trkpt lat="44.93208" lon="3.96734">
        <ele>947.414</ele>
        <time>2016-06-07T18:48:33Z</time>
      </trkpt>
      <trkpt lat="44.93143" lon="3.96643">
        <ele>952.708</ele>
        <time>2016-06-07T18:48:53Z</time>
      </trkpt>
      <trkpt lat="44.93112" lon="3.96631">
        <ele>953.715</ele>
        <time>2016-06-07T18:49:13Z</time>
      </trkpt>
      <trkpt lat="44.93064" lon="3.96591">
        <ele>957.056</ele>
        <time>2016-06-07T18:49:33Z</time>
      </trkpt>
      <trkpt lat="44.93029" lon="3.96574">
        <ele>958.637</ele>
        <time>2016-06-07T18:49:53Z</time>
      </trkpt>
      <trkpt lat="44.93004" lon="3.96583">
        <ele>959.055</ele>
        <time>2016-06-07T18:50:13Z</time>
      </trkpt>
      <trkpt lat="44.92962" lon="3.96543">
        <ele>953.553</ele>
        <time>2016-06-07T18:50:33Z</time>
      </trkpt>
      <trkpt lat="44.92935" lon="3.96529">
        <ele>947.515</ele>
        <time>2016-06-07T18:50:53Z</time>
      </trkpt>
      <trkpt lat="44.92916" lon="3.96537">
        <ele>946.355</ele>
        <time>2016-06-07T18:51:13Z</time>
      </trkpt>
      <trkpt lat="44.92891" lon="3.96535">
        <ele>945.466</ele>
        <time>2016-06-07T18:51:33Z</time>
      </trkpt>
      <trkpt lat="44.92864" lon="3.96518">
        <ele>944.345</ele>
        <time>2016-06-07T18:51:53Z</time>
      </trkpt>
      <trkpt lat="44.92809" lon="3.96392">
        <ele>936.647</ele>
        <time>2016-06-07T18:52:13Z</time>
      </trkpt>
      <trkpt lat="44.92761" lon="3.96345">
        <ele>930.511</ele>
        <time>2016-06-07T18:52:33Z</time>
      </trkpt>
      <trkpt lat="44.92741" lon="3.96308">
        <ele>932.808</ele>
        <time>2016-06-07T18:52:53Z</time>
      </trkpt>
      <trkpt lat="44.92712" lon="3.96285">
        <ele>936.567</ele>
        <time>2016-06-07T18:53:13Z</time>
      </trkpt>
      <trkpt lat="44.9269" lon="3.96277">
        <ele>938.458</ele>
        <time>2016-06-07T18:53:33Z</time>
      </trkpt>
      <trkpt lat="44.92662" lon="3.9622">
        <ele>943.879</ele>
        <time>2016-06-07T18:53:53Z</time>
      </trkpt>
      <trkpt lat="44.92646" lon="3.9621">
        <ele>946.817</ele>
        <time>2016-06-07T18:54:13Z</time>
      </trkpt>
      <trkpt lat="44.92622" lon="3.96203">
        <ele>949.895</ele>
        <time>2016-06-07T18:54:33Z</time>
      </trkpt>
      <trkpt lat="44.92611" lon="3.96187">
        <ele>951.967</ele>
        <time>2016-06-07T18:54:53Z</time>
      </trkpt>
      <trkpt lat="44.92608" lon="3.96116">
        <ele>959.217</ele>
        <time>2016-06-07T18:55:13Z</time>
      </trkpt>
      <trkpt lat="44.92585" lon="3.96059">
        <ele>963.818</ele>
        <time>2016-06-07T18:55:33Z</time>
      </trkpt>
      <trkpt lat="44.92545" lon="3.95992">
        <ele>959.927</ele>
        <time>2016-06-07T18:55:53Z</time>
      </trkpt>
      <trkpt lat="44.92543" lon="3.95971">
        <ele>957.968</ele>
        <time>2016-06-07T18:56:13Z</time>
      </trkpt>
      <trkpt lat="44.92553" lon="3.95953">
        <ele>956.714</ele>
        <time>2016-06-07T18:56:33Z</time>
      </trkpt>
      <trkpt lat="44.92526" lon="3.95933">
        <ele>953.108</ele>
        <time>2016-06-07T18:56:53Z</time>
      </trkpt>
      <trkpt lat="44.92523" lon="3.95915">
        <ele>951.945</ele>
        <time>2016-06-07T18:57:13Z</time>
      </trkpt>
      <trkpt lat="44.92532" lon="3.95874">
        <ele>953.146</ele>
        <time>2016-06-07T18:57:33Z</time>
      </trkpt>
      <trkpt lat="44.92527" lon="3.95849">
        <ele>954.977</ele>
        <time>2016-06-07T18:57:53Z</time>
      </trkpt>
      <trkpt lat="44.92492" lon="3.95763">
        <ele>961.955</ele>
        <time>2016-06-07T18:58:13Z</time>
      </trkpt>
      <trkpt lat="44.92474" lon="3.95725">
        <ele>963.923</ele>
        <time>2016-06-07T18:58:33Z</time>
      </trkpt>
      <trkpt lat="44.92453" lon="3.95657">
        <ele>966.995</ele>
        <time>2016-06-07T18:58:53Z</time>
      </trkpt>
      <trkpt lat="44.92453" lon="3.95657">
        <ele>966.945</ele>
        <time>2016-06-07T18:59:13Z</time>
      </trkpt>
      <trkpt lat="44.92427" lon="3.95634">
        <ele>969.956</ele>
        <time>2016-06-07T18:59:33Z</time>
      </trkpt>
      <trkpt lat="44.92396" lon="3.95617">
        <ele>973.169</ele>
        <time>2016-06-07T18:59:53Z</time>
      </trkpt>
      <trkpt lat="44.9239" lon="3.95598">
        <ele>973.804</ele>
        <time>2016-06-07T19:00:13Z</time>
      </trkpt>
      <trkpt lat="44.92396" lon="3.95564">
        <ele>973.024</ele>
        <time>2016-06-07T19:00:33Z</time>
      </trkpt>
      <trkpt lat="44.92391" lon="3.95498">
        <ele>974.508</ele>
        <time>2016-06-07T19:00:53Z</time>
      </trkpt>
      <trkpt lat="44.92398" lon="3.9543">
        <ele>969.579</ele>
        <time>2019-03-25T15:29:51Z</time>
      </trkpt>
      <trkpt lat="44.92428" lon="3.95392">
        <ele>964.29</ele>
        <time>2019-03-25T15:30:11Z</time>
      </trkpt>
      <trkpt lat="44.92373" lon="3.95002">
        <ele>959.061</ele>
        <time>2016-06-07T19:02:53Z</time>
      </trkpt>
      <trkpt lat="44.92361" lon="3.94953">
        <ele>956.639</ele>
        <time>2016-06-07T19:03:13Z</time>
      </trkpt>
      <trkpt lat="44.92326" lon="3.94876">
        <ele>958.147</ele>
        <time>2016-06-07T19:03:33Z</time>
      </trkpt>
      <trkpt lat="44.92283" lon="3.94802">
        <ele>956.199</ele>
        <time>2016-06-07T19:03:53Z</time>
      </trkpt>
      <trkpt lat="44.9223" lon="3.94752">
        <ele>955.229</ele>
        <time>2016-06-07T19:04:13Z</time>
      </trkpt>
      <trkpt lat="44.92102" lon="3.94664">
        <ele>935.31</ele>
        <time>2016-06-07T19:04:33Z</time>
      </trkpt>
      <trkpt lat="44.92084" lon="3.94664">
        <ele>931.993</ele>
        <time>2016-06-07T19:04:53Z</time>
      </trkpt>
      <trkpt lat="44.92062" lon="3.94689">
        <ele>929.165</ele>
        <time>2016-06-07T19:05:13Z</time>
      </trkpt>
      <trkpt lat="44.92043" lon="3.94706">
        <ele>927.321</ele>
        <time>2016-06-07T19:05:33Z</time>
      </trkpt>
      <trkpt lat="44.9202" lon="3.94705">
        <ele>924.708</ele>
        <time>2016-06-07T19:05:53Z</time>
      </trkpt>
      <trkpt lat="44.9201" lon="3.94688">
        <ele>924.122</ele>
        <time>2016-06-07T19:06:13Z</time>
      </trkpt>
      <trkpt lat="44.92006" lon="3.94664">
        <ele>923.573</ele>
        <time>2016-06-07T19:06:33Z</time>
      </trkpt>
      <trkpt lat="44.92012" lon="3.94508">
        <ele>925.124</ele>
        <time>2016-06-07T19:06:53Z</time>
      </trkpt>
      <trkpt lat="44.91966" lon="3.94355">
        <ele>934.352</ele>
        <time>2016-06-07T19:07:13Z</time>
      </trkpt>
      <trkpt lat="44.91938" lon="3.94309">
        <ele>936.46</ele>
        <time>2016-06-07T19:07:33Z</time>
      </trkpt>
      <trkpt lat="44.91891" lon="3.94245">
        <ele>938.642</ele>
        <time>2016-06-07T19:07:53Z</time>
      </trkpt>
      <trkpt lat="44.91869" lon="3.94242">
        <ele>939.432</ele>
        <time>2016-06-07T19:08:13Z</time>
      </trkpt>
      <trkpt lat="44.9186" lon="3.94218">
        <ele>938.813</ele>
        <time>2016-06-07T19:08:33Z</time>
      </trkpt>
      <trkpt lat="44.91856" lon="3.94182">
        <ele>937.171</ele>
        <time>2016-06-07T19:08:53Z</time>
      </trkpt>
      <trkpt lat="44.9185" lon="3.94161">
        <ele>937.241</ele>
        <time>2016-06-07T19:09:13Z</time>
      </trkpt>
      <trkpt lat="44.91851" lon="3.94136">
        <ele>937.415</ele>
        <time>2016-06-07T19:09:33Z</time>
      </trkpt>
      <trkpt lat="44.91842" lon="3.94108">
        <ele>938.108</ele>
        <time>2016-06-07T19:09:53Z</time>
      </trkpt>
      <trkpt lat="44.91819" lon="3.94086">
        <ele>939.43</ele>
        <time>2016-06-07T19:10:13Z</time>
      </trkpt>
      <trkpt lat="44.91853" lon="3.94016">
        <ele>939.311</ele>
        <time>2016-06-07T19:10:33Z</time>
      </trkpt>
      <trkpt lat="44.91857" lon="3.93985">
        <ele>939.162</ele>
        <time>2016-06-07T19:10:53Z</time>
      </trkpt>
      <trkpt lat="44.91846" lon="3.93963">
        <ele>939.27</ele>
        <time>2016-06-07T19:11:13Z</time>
      </trkpt>
      <trkpt lat="44.9179" lon="3.93954">
        <ele>940.958</ele>
        <time>2016-06-07T19:11:33Z</time>
      </trkpt>
      <trkpt lat="44.91779" lon="3.93938">
        <ele>942.15</ele>
        <time>2016-06-07T19:11:53Z</time>
      </trkpt>
      <trkpt lat="44.91756" lon="3.93889">
        <ele>942.24</ele>
        <time>2016-06-07T19:12:13Z</time>
      </trkpt>
      <trkpt lat="44.91727" lon="3.93851">
        <ele>941.291</ele>
        <time>2016-06-07T19:12:33Z</time>
      </trkpt>
      <trkpt lat="44.9166" lon="3.93867">
        <ele>942.733</ele>
        <time>2016-06-07T19:12:53Z</time>
      </trkpt>
      <trkpt lat="44.91623" lon="3.93869">
        <ele>944.623</ele>
        <time>2016-06-07T19:13:13Z</time>
      </trkpt>
      <trkpt lat="44.91587" lon="3.93878">
        <ele>944.115</ele>
        <time>2016-06-07T19:13:33Z</time>
      </trkpt>
      <trkpt lat="44.91539" lon="3.93873">
        <ele>946.608</ele>
        <time>2016-06-07T19:13:53Z</time>
      </trkpt>
      <trkpt lat="44.91479" lon="3.93855">
        <ele>948.146</ele>
        <time>2016-06-07T19:14:13Z</time>
      </trkpt>
      <trkpt lat="44.91411" lon="3.93813">
        <ele>951.047</ele>
        <time>2016-06-07T19:14:33Z</time>
      </trkpt>
      <trkpt lat="44.91316" lon="3.93785">
        <ele>957.128</ele>
        <time>2016-06-07T19:14:53Z</time>
      </trkpt>
      <trkpt lat="44.9129" lon="3.93764">
        <ele>958.156</ele>
        <time>2016-06-07T19:15:13Z</time>
      </trkpt>
      <trkpt lat="44.9129" lon="3.93764">
        <ele>958.124</ele>
        <time>2016-06-07T19:15:33Z</time>
      </trkpt>
      <trkpt lat="44.91173" lon="3.93756">
        <ele>969.646</ele>
        <time>2016-06-07T19:15:53Z</time>
      </trkpt>
      <trkpt lat="44.91114" lon="3.93693">
        <ele>973.556</ele>
        <time>2016-06-07T19:16:13Z</time>
      </trkpt>
      <trkpt lat="44.91064" lon="3.93683">
        <ele>978.077</ele>
        <time>2016-06-07T19:16:33Z</time>
      </trkpt>
      <trkpt lat="44.90975" lon="3.93625">
        <ele>982.184</ele>
        <time>2016-06-07T19:16:53Z</time>
      </trkpt>
      <trkpt lat="44.90904" lon="3.93591">
        <ele>993.307</ele>
        <time>2016-06-07T19:17:13Z</time>
      </trkpt>
      <trkpt lat="44.90867" lon="3.93601">
        <ele>998.917</ele>
        <time>2016-06-07T19:17:33Z</time>
      </trkpt>
      <trkpt lat="44.90798" lon="3.93563">
        <ele>1002.008</ele>
        <time>2016-06-07T19:17:53Z</time>
      </trkpt>
      <trkpt lat="44.9075" lon="3.93569">
        <ele>1005.411</ele>
        <time>2016-06-07T19:18:33Z</time>
      </trkpt>
      <trkpt lat="44.9069" lon="3.93586">
        <ele>1012.632</ele>
        <time>2016-06-07T19:18:53Z</time>
      </trkpt>
      <trkpt lat="44.90583" lon="3.93578">
        <ele>1010.863</ele>
        <time>2016-06-07T19:19:13Z</time>
      </trkpt>
      <trkpt lat="44.9057" lon="3.93519">
        <ele>1007.941</ele>
        <time>2016-06-07T19:19:33Z</time>
      </trkpt>
      <trkpt lat="44.90561" lon="3.93518">
        <ele>1007.549</ele>
        <time>2016-06-07T19:19:53Z</time>
      </trkpt>
      <trkpt lat="44.90548" lon="3.935">
        <ele>1006.061</ele>
        <time>2016-06-07T19:20:13Z</time>
      </trkpt>
      <trkpt lat="44.90555" lon="3.9346">
        <ele>1003.171</ele>
        <time>2019-03-25T15:47:51Z</time>
      </trkpt>
      <trkpt lat="44.90527" lon="3.93453">
        <ele>1001.632</ele>
        <time>2019-03-25T15:48:11Z</time>
      </trkpt>
      <trkpt lat="44.90501" lon="3.93432">
        <ele>999.282</ele>
        <time>2016-06-07T19:21:13Z</time>
      </trkpt>
      <trkpt lat="44.90496" lon="3.93418">
        <ele>998.243</ele>
        <time>2016-06-07T19:21:33Z</time>
      </trkpt>
      <trkpt lat="44.90482" lon="3.93404">
        <ele>997.717</ele>
        <time>2016-06-07T19:21:53Z</time>
      </trkpt>
      <trkpt lat="44.90457" lon="3.93329">
        <ele>991.708</ele>
        <time>2016-06-07T19:22:13Z</time>
      </trkpt>
      <trkpt lat="44.90407" lon="3.93301">
        <ele>998.321</ele>
        <time>2016-06-07T19:22:33Z</time>
      </trkpt>
      <trkpt lat="44.90377" lon="3.93273">
        <ele>1000.692</ele>
        <time>2016-06-07T19:22:53Z</time>
      </trkpt>
      <trkpt lat="44.90337" lon="3.93212">
        <ele>999.143</ele>
        <time>2016-06-07T19:23:13Z</time>
      </trkpt>
      <trkpt lat="44.90264" lon="3.93142">
        <ele>999.361</ele>
        <time>2016-06-07T19:23:33Z</time>
      </trkpt>
      <trkpt lat="44.90208" lon="3.93152">
        <ele>1004.239</ele>
        <time>2016-06-07T19:23:53Z</time>
      </trkpt>
      <trkpt lat="44.90161" lon="3.93138">
        <ele>1003.281</ele>
        <time>2016-06-07T19:24:13Z</time>
      </trkpt>
      <trkpt lat="44.901" lon="3.93099">
        <ele>1002.231</ele>
        <time>2016-06-07T19:24:33Z</time>
      </trkpt>
      <trkpt lat="44.90051" lon="3.93086">
        <ele>1002.682</ele>
        <time>2016-06-07T19:24:53Z</time>
      </trkpt>
      <trkpt lat="44.89983" lon="3.93097">
        <ele>1005.982</ele>
        <time>2016-06-07T19:25:13Z</time>
      </trkpt>
      <trkpt lat="44.89904" lon="3.9312">
        <ele>1003.343</ele>
        <time>2016-06-07T19:25:33Z</time>
      </trkpt>
      <trkpt lat="44.89866" lon="3.9311">
        <ele>1002.917</ele>
        <time>2016-06-07T19:25:53Z</time>
      </trkpt>
      <trkpt lat="44.89786" lon="3.93113">
        <ele>997.308</ele>
        <time>2016-06-07T19:26:13Z</time>
      </trkpt>
      <trkpt lat="44.89653" lon="3.93142">
        <ele>987.211</ele>
        <time>2016-06-07T19:26:33Z</time>
      </trkpt>
      <trkpt lat="44.89563" lon="3.93155">
        <ele>985.592</ele>
        <time>2016-06-07T19:26:53Z</time>
      </trkpt>
      <trkpt lat="44.89512" lon="3.93146">
        <ele>982.223</ele>
        <time>2016-06-07T19:27:13Z</time>
      </trkpt>
      <trkpt lat="44.89471" lon="3.93104">
        <ele>982.431</ele>
        <time>2016-06-07T19:27:33Z</time>
      </trkpt>
      <trkpt lat="44.89427" lon="3.9307">
        <ele>978.379</ele>
        <time>2016-06-07T19:27:53Z</time>
      </trkpt>
      <trkpt lat="44.89411" lon="3.93043">
        <ele>975.181</ele>
        <time>2016-06-07T19:28:13Z</time>
      </trkpt>
      <trkpt lat="44.89409" lon="3.93016">
        <ele>974.011</ele>
        <time>2016-06-07T19:28:33Z</time>
      </trkpt>
      <trkpt lat="44.89427" lon="3.92969">
        <ele>972.392</ele>
        <time>2016-06-07T19:28:53Z</time>
      </trkpt>
      <trkpt lat="44.8938" lon="3.92911">
        <ele>962.234</ele>
        <time>2016-06-07T19:29:13Z</time>
      </trkpt>
      <trkpt lat="44.89351" lon="3.92891">
        <ele>960.455</ele>
        <time>2016-06-07T19:29:33Z</time>
      </trkpt>
      <trkpt lat="44.8934" lon="3.92798">
        <ele>946.91</ele>
        <time>2016-06-07T19:29:53Z</time>
      </trkpt>
      <trkpt lat="44.89341" lon="3.9278">
        <ele>944.708</ele>
        <time>2016-06-07T19:30:13Z</time>
      </trkpt>
      <trkpt lat="44.89362" lon="3.92723">
        <ele>938.076</ele>
        <time>2016-06-07T19:30:33Z</time>
      </trkpt>
      <trkpt lat="44.89354" lon="3.9269">
        <ele>931.097</ele>
        <time>2016-06-07T19:30:53Z</time>
      </trkpt>
      <trkpt lat="44.89353" lon="3.9266">
        <ele>926.928</ele>
        <time>2016-06-07T19:31:13Z</time>
      </trkpt>
      <trkpt lat="44.89338" lon="3.92619">
        <ele>916.526</ele>
        <time>2016-06-07T19:31:33Z</time>
      </trkpt>
      <trkpt lat="44.89337" lon="3.92604">
        <ele>913.674</ele>
        <time>2016-06-07T19:31:53Z</time>
      </trkpt>
      <trkpt lat="44.89332" lon="3.92583">
        <ele>909.666</ele>
        <time>2016-06-07T19:32:13Z</time>
      </trkpt>
      <trkpt lat="44.8933" lon="3.92514">
        <ele>894.156</ele>
        <time>2016-06-07T19:32:33Z</time>
      </trkpt>
      <trkpt lat="44.89347" lon="3.9241">
        <ele>876.967</ele>
        <time>2016-06-07T19:32:53Z</time>
      </trkpt>
      <trkpt lat="44.89342" lon="3.92398">
        <ele>875.263</ele>
        <time>2016-06-07T19:33:13Z</time>
      </trkpt>
      <trkpt lat="44.89318" lon="3.92415">
        <ele>874.144</ele>
        <time>2016-06-07T19:33:33Z</time>
      </trkpt>
      <trkpt lat="44.89297" lon="3.92438">
        <ele>873.618</ele>
        <time>2016-06-07T19:33:53Z</time>
      </trkpt>
      <trkpt lat="44.89333" lon="3.9232">
        <ele>857.508</ele>
        <time>2016-06-07T19:34:13Z</time>
      </trkpt>
      <trkpt lat="44.89348" lon="3.92306">
        <ele>854.239</ele>
        <time>2016-06-07T19:34:33Z</time>
      </trkpt>
      <trkpt lat="44.89372" lon="3.92305">
        <ele>854.18</ele>
        <time>2016-06-07T19:34:53Z</time>
      </trkpt>
      <trkpt lat="44.89356" lon="3.92291">
        <ele>850.351</ele>
        <time>2016-06-07T19:35:13Z</time>
      </trkpt>
      <trkpt lat="44.89345" lon="3.92273">
        <ele>844.459</ele>
        <time>2016-06-07T19:35:33Z</time>
      </trkpt>
      <trkpt lat="44.89328" lon="3.92268">
        <ele>840.657</ele>
        <time>2016-06-07T19:35:53Z</time>
      </trkpt>
      <trkpt lat="44.89341" lon="3.92255">
        <ele>840.059</ele>
        <time>2016-06-07T19:36:13Z</time>
      </trkpt>
      <trkpt lat="44.89341" lon="3.92243">
        <ele>837.829</ele>
        <time>2016-06-07T19:36:33Z</time>
      </trkpt>
      <trkpt lat="44.89321" lon="3.92242">
        <ele>833.03</ele>
        <time>2016-06-07T19:36:53Z</time>
      </trkpt>
      <trkpt lat="44.8929" lon="3.92267">
        <ele>828.748</ele>
        <time>2016-06-07T19:37:13Z</time>
      </trkpt>
      <trkpt lat="44.89197" lon="3.92372">
        <ele>814.061</ele>
        <time>2016-06-07T19:37:33Z</time>
      </trkpt>
      <trkpt lat="44.89113" lon="3.92499">
        <ele>802.417</ele>
        <time>2016-06-07T19:37:53Z</time>
      </trkpt>
      <trkpt lat="44.891" lon="3.92507">
        <ele>799.908</ele>
        <time>2016-06-07T19:38:13Z</time>
      </trkpt>
      <trkpt lat="44.89091" lon="3.92494">
        <ele>796.557</ele>
        <time>2016-06-07T19:38:33Z</time>
      </trkpt>
      <trkpt lat="44.89074" lon="3.92477">
        <ele>790.978</ele>
        <time>2016-06-07T19:38:53Z</time>
      </trkpt>
      <trkpt lat="44.89006" lon="3.92447">
        <ele>776.289</ele>
        <time>2016-06-07T19:39:13Z</time>
      </trkpt>
      <trkpt lat="44.8898" lon="3.92473">
        <ele>776.237</ele>
        <time>2016-06-07T19:39:33Z</time>
      </trkpt>
      <trkpt lat="44.88915" lon="3.92459">
        <ele>771.565</ele>
        <time>2016-06-07T19:39:53Z</time>
      </trkpt>
      <trkpt lat="44.88926" lon="3.92405">
        <ele>768.997</ele>
        <time>2016-06-07T19:40:13Z</time>
      </trkpt>
      <trkpt lat="44.8892" lon="3.92351">
        <ele>769.357</ele>
        <time>2016-06-07T19:40:33Z</time>
      </trkpt>
      <trkpt lat="44.88931" lon="3.92307">
        <ele>766.358</ele>
        <time>2016-06-07T19:40:53Z</time>
      </trkpt>
      <trkpt lat="44.88888" lon="3.92248">
        <ele>770.999</ele>
        <time>2016-06-07T19:41:13Z</time>
      </trkpt>
      <trkpt lat="44.88892" lon="3.92229">
        <ele>768.407</ele>
        <time>2016-06-07T19:41:33Z</time>
      </trkpt>
      <trkpt lat="44.88935" lon="3.92196">
        <ele>763.027</ele>
        <time>2016-06-07T19:41:53Z</time>
      </trkpt>
      <trkpt lat="44.88966" lon="3.92184">
        <ele>766.008</ele>
        <time>2016-06-07T19:42:13Z</time>
      </trkpt>
      <trkpt lat="44.88982" lon="3.92109">
        <ele>773.312</ele>
        <time>2016-06-07T19:42:33Z</time>
      </trkpt>
      <trkpt lat="44.88983" lon="3.92062">
        <ele>780.373</ele>
        <time>2016-06-07T19:42:53Z</time>
      </trkpt>
      <trkpt lat="44.89019" lon="3.91904">
        <ele>792.244</ele>
        <time>2016-06-07T19:43:13Z</time>
      </trkpt>
      <trkpt lat="44.89048" lon="3.91643">
        <ele>795.192</ele>
        <time>2016-06-07T19:43:33Z</time>
      </trkpt>
      <trkpt lat="44.89034" lon="3.91636">
        <ele>795.76</ele>
        <time>2016-06-07T19:43:53Z</time>
      </trkpt>
      <trkpt lat="44.89022" lon="3.91583">
        <ele>795.422</ele>
        <time>2016-06-07T19:44:13Z</time>
      </trkpt>
      <trkpt lat="44.89023" lon="3.91459">
        <ele>796.992</ele>
        <time>2016-06-07T19:44:33Z</time>
      </trkpt>
      <trkpt lat="44.89027" lon="3.91433">
        <ele>798.753</ele>
        <time>2016-06-07T19:44:53Z</time>
      </trkpt>
      <trkpt lat="44.8902" lon="3.91408">
        <ele>803.474</ele>
        <time>2016-06-07T19:45:13Z</time>
      </trkpt>
      <trkpt lat="44.89004" lon="3.91417">
        <ele>804.456</ele>
        <time>2016-06-07T19:45:33Z</time>
      </trkpt>
      <trkpt lat="44.88973" lon="3.91408">
        <ele>817.921</ele>
        <time>2016-06-07T19:45:53Z</time>
      </trkpt>
      <trkpt lat="44.88968" lon="3.91382">
        <ele>830.108</ele>
        <time>2016-06-07T19:46:13Z</time>
      </trkpt>
      <trkpt lat="44.88934" lon="3.91386">
        <ele>836.34</ele>
        <time>2016-06-07T19:46:33Z</time>
      </trkpt>
      <trkpt lat="44.88921" lon="3.9137">
        <ele>842.061</ele>
        <time>2016-06-07T19:46:53Z</time>
      </trkpt>
      <trkpt lat="44.88898" lon="3.91366">
        <ele>845.722</ele>
        <time>2016-06-07T19:47:13Z</time>
      </trkpt>
      <trkpt lat="44.88836" lon="3.91348">
        <ele>856.89</ele>
        <time>2016-06-07T19:47:33Z</time>
      </trkpt>
      <trkpt lat="44.88721" lon="3.91327">
        <ele>886.318</ele>
        <time>2016-06-07T19:47:53Z</time>
      </trkpt>
      <trkpt lat="44.88705" lon="3.91336">
        <ele>887.61</ele>
        <time>2016-06-07T19:48:13Z</time>
      </trkpt>
      <trkpt lat="44.88672" lon="3.91374">
        <ele>887.86</ele>
        <time>2016-06-07T19:48:33Z</time>
      </trkpt>
      <trkpt lat="44.88638" lon="3.91392">
        <ele>891.271</ele>
        <time>2016-06-07T19:48:53Z</time>
      </trkpt>
      <trkpt lat="44.88587" lon="3.91397">
        <ele>890.723</ele>
        <time>2016-06-07T19:49:13Z</time>
      </trkpt>
      <trkpt lat="44.88572" lon="3.91383">
        <ele>890.183</ele>
        <time>2016-06-07T19:49:33Z</time>
      </trkpt>
      <trkpt lat="44.88566" lon="3.91365">
        <ele>890.311</ele>
        <time>2016-06-07T19:49:53Z</time>
      </trkpt>
      <trkpt lat="44.88564" lon="3.91334">
        <ele>894.008</ele>
        <time>2016-06-07T19:50:13Z</time>
      </trkpt>
    </trkseg>
  </trk>
</gpx>